Time;durP1;ratioP1;P1;durP2;ratioP2;P2;SDS_P1;SDS_P2;PMS_P1;PMS_P2;Temp;Humidity;BMP_temperature;BMP_pressure;BME280_temperature;BME280_humidity;BME280_pressure;Samples;Min_cycle;Max_cycle;Signal;HPM_P1;HPM_P2
2023/04/13 00:00:09;;;;;;;;;;;;;;;9.81;100.00;96745.38;5124688;28;19962;-66
2023/04/13 00:02:37;;;;;;;;;;;;;;;9.82;100.00;96757.59;5124860;28;19931;-66
2023/04/13 00:05:06;;;;;;;;;;;;;;;9.80;100.00;96757.91;5123709;28;19924;-65
2023/04/13 00:07:32;;;;;;;;;;;;;;;9.76;100.00;96763.00;5121326;28;19946;-66
2023/04/13 00:10:01;;;;;;;;;;;;;;;9.74;100.00;96759.03;5121303;28;19928;-66
2023/04/13 00:12:27;;;;;;;;;;;;;;;9.71;100.00;96754.28;5124395;28;20027;-65
2023/04/13 00:14:54;;;;;;;;;;;;;;;9.77;100.00;96753.94;5124425;28;19920;-65
2023/04/13 00:17:20;;;;;;;;;;;;;;;9.74;100.00;96757.19;5121071;28;19963;-65
2023/04/13 00:19:46;;;;;;;;;;;;;;;9.67;100.00;96764.72;5120647;28;19954;-65
2023/04/13 00:22:14;;;;;;;;;;;;;;;9.70;100.00;96774.81;5122904;28;19955;-65
2023/04/13 00:24:42;;;;;;;;;;;;;;;9.72;100.00;96775.31;5124197;28;19951;-65
2023/04/13 00:27:09;;;;;;;;;;;;;;;9.68;100.00;96789.50;5122165;28;20346;-65
2023/04/13 00:29:36;;;;;;;;;;;;;;;9.65;100.00;96798.88;5119746;28;19932;-65
2023/04/13 00:32:03;;;;;;;;;;;;;;;9.63;100.00;96795.69;5123832;28;19977;-65
2023/04/13 00:34:29;;;;;;;;;;;;;;;9.59;100.00;96789.31;5124044;28;19978;-65
2023/04/13 00:36:56;;;;;;;;;;;;;;;9.56;100.00;96778.47;5123963;28;19998;-65
2023/04/13 00:39:26;;;;;;;;;;;;;;;9.49;100.00;96776.13;5111711;28;19931;-65
2023/04/13 00:41:53;;;;;;;;;;;;;;;9.52;100.00;96774.75;5112038;28;19931;-65
2023/04/13 00:44:20;;;;;;;;;;;;;;;9.47;100.00;96764.16;5111902;28;19924;-65
2023/04/13 00:46:47;;;;;;;;;;;;;;;9.40;100.00;96759.16;5111748;28;19935;-65
2023/04/13 00:49:14;;;;;;;;;;;;;;;9.52;100.00;96766.75;5111665;28;19947;-65
2023/04/13 00:51:40;;;;;;;;;;;;;;;9.50;100.00;96767.03;5102142;28;19951;-65
2023/04/13 00:54:07;;;;;;;;;;;;;;;9.54;100.00;96770.72;5121391;28;19981;-66
2023/04/13 00:56:36;;;;;;;;;;;;;;;9.57;100.00;96756.84;5123716;28;19920;-65
2023/04/13 00:59:02;;;;;;;;;;;;;;;9.61;100.00;96765.06;5122798;28;19923;-65
2023/04/13 01:01:29;;;;;;;;;;;;;;;9.48;100.00;96766.53;5122617;28;19959;-65
2023/04/13 01:03:55;;;;;;;;;;;;;;;9.50;100.00;96755.59;5120114;28;19925;-65
2023/04/13 01:06:25;;;;;;;;;;;;;;;9.51;100.00;96744.66;5119960;28;19934;-65
2023/04/13 01:08:54;;;;;;;;;;;;;;;9.56;100.00;96743.81;5119842;28;19928;-65
2023/04/13 01:11:25;;;;;;;;;;;;;;;9.55;100.00;96759.00;5123182;28;20194;-65
2023/04/13 01:13:57;;;;;;;;;;;;;;;9.63;100.00;96774.34;5123410;28;19930;-65
2023/04/13 01:16:27;;;;;;;;;;;;;;;9.60;100.00;96774.13;5119906;28;19924;-65
2023/04/13 01:18:54;;;;;;;;;;;;;;;9.67;100.00;96793.25;5119599;28;19925;-65
2023/04/13 01:21:24;;;;;;;;;;;;;;;9.64;100.00;96796.47;5123066;28;19924;-65
2023/04/13 01:23:55;;;;;;;;;;;;;;;9.58;100.00;96793.09;5123257;28;19955;-64
2023/04/13 01:26:22;;;;;;;;;;;;;;;9.58;100.00;96797.59;5119644;28;19959;-66
2023/04/13 01:28:51;;;;;;;;;;;;;;;9.54;100.00;96796.59;5119637;28;19935;-66
2023/04/13 01:31:19;;;;;;;;;;;;;;;9.56;100.00;96797.88;5128042;28;20016;-66
2023/04/13 01:33:46;;;;;;;;;;;;;;;9.48;100.00;96808.38;5119647;28;19924;-66
2023/04/13 01:36:13;;;;;;;;;;;;;;;9.45;100.00;96800.94;5121626;28;19951;-66
2023/04/13 01:38:39;;;;;;;;;;;;;;;9.51;100.00;96797.94;5122795;28;19957;-66
2023/04/13 01:41:07;;;;;;;;;;;;;;;9.52;100.00;96804.06;5121405;28;19919;-65
2023/04/13 01:43:34;;;;;;;;;;;;;;;9.56;100.00;96811.22;5119390;28;19950;-65
2023/04/13 01:46:04;;;;;;;;;;;;;;;9.44;100.00;96808.13;5119700;28;19924;-65
2023/04/13 01:48:34;;;;;;;;;;;;;;;9.48;100.00;96808.38;5122866;28;19945;-65
2023/04/13 01:51:07;;;;;;;;;;;;;;;9.52;100.00;96814.75;5122174;28;19993;-65
2023/04/13 01:53:36;;;;;;;;;;;;;;;9.57;100.00;96820.00;5119255;28;19931;-65
2023/04/13 01:56:03;;;;;;;;;;;;;;;9.64;100.00;96818.59;5120075;28;19970;-65
2023/04/13 01:58:32;;;;;;;;;;;;;;;9.63;100.00;96810.88;5122658;28;19923;-65
2023/04/13 02:00:59;;;;;;;;;;;;;;;9.63;100.00;96810.88;5125129;28;19941;-65
2023/04/13 02:03:27;;;;;;;;;;;;;;;9.66;100.00;96821.78;5119240;28;19931;-65
2023/04/13 02:05:55;;;;;;;;;;;;;;;9.67;100.00;96819.91;5119113;28;20594;-65
2023/04/13 02:08:21;;;;;;;;;;;;;;;9.64;100.00;96831.94;5122418;28;19927;-65
2023/04/13 02:10:49;;;;;;;;;;;;;;;9.65;100.00;96827.41;5104606;28;20347;-65
2023/04/13 02:13:15;;;;;;;;;;;;;;;9.59;100.00;96831.97;5119966;28;19923;-65
2023/04/13 02:15:41;;;;;;;;;;;;;;;9.52;100.00;96831.53;5119167;28;19959;-65
2023/04/13 02:18:09;;;;;;;;;;;;;;;9.50;100.00;96828.31;5120541;28;19935;-66
2023/04/13 02:20:42;;;;;;;;;;;;;;;9.49;100.00;96834.75;5122580;28;19931;-66
2023/04/13 02:23:09;;;;;;;;;;;;;;;9.51;100.00;96831.78;5120915;28;19928;-66
2023/04/13 02:25:36;;;;;;;;;;;;;;;9.47;100.00;96815.56;5119264;28;19992;-66
2023/04/13 02:28:03;;;;;;;;;;;;;;;9.48;100.00;96825.16;5119571;28;19924;-66
2023/04/13 02:30:30;;;;;;;;;;;;;;;9.48;100.00;96822.50;5125063;28;19924;-66
2023/04/13 02:32:56;;;;;;;;;;;;;;;9.52;100.00;96812.06;5122279;28;19924;-66
2023/04/13 02:35:24;;;;;;;;;;;;;;;9.54;100.00;96821.38;5110434;28;19925;-66
2023/04/13 02:37:52;;;;;;;;;;;;;;;9.56;100.00;96821.88;5110359;28;19924;-66
2023/04/13 02:40:19;;;;;;;;;;;;;;;9.58;100.00;96814.41;5110191;28;19965;-66
2023/04/13 02:42:46;;;;;;;;;;;;;;;9.54;100.00;96818.69;5110592;28;19924;-65
2023/04/13 02:45:14;;;;;;;;;;;;;;;9.44;100.00;96821.47;5110166;28;19931;-64
2023/04/13 02:47:41;;;;;;;;;;;;;;;9.41;100.00;96829.25;5110541;28;19924;-66
2023/04/13 02:50:08;;;;;;;;;;;;;;;9.38;100.00;96819.91;5110731;28;19924;-66
2023/04/13 02:52:36;;;;;;;;;;;;;;;9.46;100.00;96821.19;5113624;28;19915;-65
2023/04/13 02:55:04;;;;;;;;;;;;;;;9.27;100.00;96828.31;5118688;28;19928;-65
2023/04/13 02:57:30;;;;;;;;;;;;;;;9.41;100.00;96823.91;5114794;28;19924;-64
2023/04/13 02:59:57;;;;;;;;;;;;;;;9.33;100.00;96813.84;5119920;28;19930;-65
2023/04/13 03:02:25;;;;;;;;;;;;;;;9.29;100.00;96816.28;5127812;28;19931;-65
2023/04/13 03:04:51;;;;;;;;;;;;;;;9.38;100.00;96824.44;5136364;28;19927;-65
2023/04/13 03:07:18;;;;;;;;;;;;;;;9.35;100.00;96830.34;5130595;28;19927;-65
2023/04/13 03:09:46;;;;;;;;;;;;;;;9.39;100.00;96840.16;5138762;28;19934;-65
2023/04/13 03:12:13;;;;;;;;;;;;;;;9.40;100.00;96836.44;5137224;28;19930;-65
2023/04/13 03:14:40;;;;;;;;;;;;;;;9.48;100.00;96840.34;5125565;28;19924;-65
2023/04/13 03:17:06;;;;;;;;;;;;;;;9.39;100.00;96853.50;5124011;28;19980;-65
2023/04/13 03:19:34;;;;;;;;;;;;;;;9.44;100.00;96852.66;5125889;28;19983;-65
2023/04/13 03:22:01;;;;;;;;;;;;;;;9.36;100.00;96859.38;5125428;28;19930;-65
2023/04/13 03:24:27;;;;;;;;;;;;;;;9.29;100.00;96858.91;5123751;28;20003;-65
2023/04/13 03:26:55;;;;;;;;;;;;;;;9.22;100.00;96859.22;5122322;28;19924;-65
2023/04/13 03:29:23;;;;;;;;;;;;;;;9.23;100.00;96865.34;5125368;28;19924;-65
2023/04/13 03:31:50;;;;;;;;;;;;;;;9.09;100.00;96875.06;5126858;28;19984;-65
2023/04/13 03:34:16;;;;;;;;;;;;;;;9.28;100.00;96873.31;5124918;28;19927;-65
2023/04/13 03:36:43;;;;;;;;;;;;;;;9.19;100.00;96885.66;5125545;28;19953;-65
2023/04/13 03:39:09;;;;;;;;;;;;;;;9.31;100.00;96878.09;5123666;28;19979;-65
2023/04/13 03:41:36;;;;;;;;;;;;;;;9.26;100.00;96886.09;5121849;28;19930;-65
2023/04/13 03:44:02;;;;;;;;;;;;;;;9.22;100.00;96885.09;5122446;28;19931;-65
2023/04/13 03:46:30;;;;;;;;;;;;;;;9.34;100.00;96898.03;5125056;28;19928;-65
2023/04/13 03:48:57;;;;;;;;;;;;;;;9.25;100.00;96897.06;5125169;28;19923;-65
2023/04/13 03:51:23;;;;;;;;;;;;;;;9.37;100.00;96894.81;5113322;28;19958;-65
2023/04/13 03:53:50;;;;;;;;;;;;;;;9.25;100.00;96892.53;5113185;28;19924;-65
2023/04/13 03:56:16;;;;;;;;;;;;;;;9.30;100.00;96891.69;5113148;28;19971;-65
2023/04/13 03:58:42;;;;;;;;;;;;;;;9.25;100.00;96892.53;5113220;28;19927;-65
2023/04/13 04:01:09;;;;;;;;;;;;;;;9.18;100.00;96884.84;5124270;28;19927;-65
2023/04/13 04:03:37;;;;;;;;;;;;;;;9.11;100.00;96884.38;5121619;28;19979;-65
2023/04/13 04:06:04;;;;;;;;;;;;;;;9.22;100.00;96885.09;5122303;28;19930;-65
2023/04/13 04:08:30;;;;;;;;;;;;;;;9.24;100.00;96888.25;5125091;28;19924;-65
2023/04/13 04:10:57;;;;;;;;;;;;;;;9.29;100.00;96884.75;5125157;28;19994;-65
2023/04/13 04:13:23;;;;;;;;;;;;;;;9.27;100.00;96889.56;5112753;28;19935;-65
2023/04/13 04:15:50;;;;;;;;;;;;;;;9.29;100.00;96896.19;5113011;28;19924;-65
2023/04/13 04:18:16;;;;;;;;;;;;;;;9.31;100.00;96882.63;5113014;28;19924;-65
2023/04/13 04:20:44;;;;;;;;;;;;;;;9.35;100.00;96887.09;5094821;28;19928;-65
2023/04/13 04:23:12;;;;;;;;;;;;;;;9.26;100.00;96880.78;5112532;28;19924;-65
2023/04/13 04:25:39;;;;;;;;;;;;;;;9.36;100.00;96872.72;5113095;28;19928;-65
2023/04/13 04:28:05;;;;;;;;;;;;;;;9.17;100.00;96861.94;5112645;28;19924;-65
2023/04/13 04:30:32;;;;;;;;;;;;;;;9.10;100.00;96856.13;5120131;28;19971;-65
2023/04/13 04:33:00;;;;;;;;;;;;;;;9.14;100.00;96867.03;5124499;28;19936;-65
2023/04/13 04:35:31;;;;;;;;;;;;;;;9.14;100.00;96872.34;5121333;28;19948;-65
2023/04/13 04:38:02;;;;;;;;;;;;;;;9.23;100.00;96873.34;5120979;28;19991;-65
2023/04/13 04:40:28;;;;;;;;;;;;;;;9.25;100.00;96868.56;5124227;28;19938;-65
2023/04/13 04:42:55;;;;;;;;;;;;;;;9.29;100.00;96874.88;5124160;28;19935;-65
2023/04/13 04:45:21;;;;;;;;;;;;;;;9.29;100.00;96892.75;5120645;28;20011;-65
2023/04/13 04:47:49;;;;;;;;;;;;;;;9.33;100.00;96899.09;5120663;28;19920;-65
2023/04/13 04:50:16;;;;;;;;;;;;;;;9.30;100.00;96903.13;5123079;28;19931;-65
2023/04/13 04:52:43;;;;;;;;;;;;;;;9.30;100.00;96903.13;5123847;28;19930;-65
2023/04/13 04:55:11;;;;;;;;;;;;;;;9.32;100.00;96903.63;5122315;28;19979;-65
2023/04/13 04:57:37;;;;;;;;;;;;;;;9.32;100.00;96911.63;5102382;28;19924;-65
2023/04/13 05:00:08;;;;;;;;;;;;;;;9.35;100.00;96900.41;5123659;28;19923;-65
2023/04/13 05:02:35;;;;;;;;;;;;;;;9.24;100.00;96896.25;5123439;28;19924;-65
2023/04/13 05:05:01;;;;;;;;;;;;;;;9.25;100.00;96907.72;5122975;28;19923;-65
2023/04/13 05:07:29;;;;;;;;;;;;;;;9.19;100.00;96906.97;5120142;28;19931;-65
2023/04/13 05:09:55;;;;;;;;;;;;;;;9.25;100.00;96918.38;5120310;28;19924;-65
2023/04/13 05:12:23;;;;;;;;;;;;;;;9.25;100.00;96910.38;5123488;28;19923;-65
2023/04/13 05:14:49;;;;;;;;;;;;;;;9.32;100.00;96919.63;5123845;28;19947;-65
2023/04/13 05:17:16;;;;;;;;;;;;;;;9.25;100.00;96899.72;5102886;28;19949;-65
2023/04/13 05:19:43;;;;;;;;;;;;;;;9.28;100.00;96899.97;5120290;28;20594;-65
2023/04/13 05:22:10;;;;;;;;;;;;;;;9.29;100.00;96912.19;5121619;28;19975;-65
2023/04/13 05:24:36;;;;;;;;;;;;;;;9.26;100.00;96906.63;5123768;28;19927;-65
2023/04/13 05:27:03;;;;;;;;;;;;;;;9.30;100.00;96916.44;5122707;28;19931;-65
2023/04/13 05:29:32;;;;;;;;;;;;;;;9.30;100.00;96913.00;5119908;28;19928;-65
2023/04/13 05:31:58;;;;;;;;;;;;;;;9.29;100.00;96912.19;5122203;28;19924;-65
2023/04/13 05:34:25;;;;;;;;;;;;;;;9.23;100.00;96914.09;5122902;28;19945;-65
2023/04/13 05:36:52;;;;;;;;;;;;;;;9.09;100.00;96918.47;5122977;28;19930;-65
2023/04/13 05:39:19;;;;;;;;;;;;;;;9.17;100.00;96911.75;5119862;28;19932;-65
2023/04/13 05:41:45;;;;;;;;;;;;;;;9.02;100.00;96914.53;5119497;28;19924;-66
2023/04/13 05:44:12;;;;;;;;;;;;;;;9.15;100.00;96922.69;5103464;28;20437;-66
2023/04/13 05:46:39;;;;;;;;;;;;;;;9.14;100.00;96914.97;5122777;28;19920;-66
2023/04/13 05:49:06;;;;;;;;;;;;;;;9.16;100.00;96918.94;5121713;28;19947;-66
2023/04/13 05:51:32;;;;;;;;;;;;;;;9.07;100.00;96927.78;5119261;28;19966;-66
2023/04/13 05:53:59;;;;;;;;;;;;;;;8.98;100.00;96930.25;5119491;28;19923;-66
2023/04/13 05:56:25;;;;;;;;;;;;;;;9.10;100.00;96921.91;5122911;28;19923;-66
2023/04/13 05:58:52;;;;;;;;;;;;;;;8.96;100.00;96934.28;5122981;28;19950;-65
2023/04/13 06:01:19;;;;;;;;;;;;;;;9.05;100.00;96932.63;5123205;28;19950;-66
2023/04/13 06:03:47;;;;;;;;;;;;;;;9.00;100.00;96930.00;5119663;28;19979;-66
2023/04/13 06:06:13;;;;;;;;;;;;;;;8.94;100.00;96925.78;5121655;28;19930;-66
2023/04/13 06:08:40;;;;;;;;;;;;;;;9.00;100.00;96925.47;5122816;28;19951;-66
2023/04/13 06:11:06;;;;;;;;;;;;;;;8.82;100.00;96927.97;5121401;28;19923;-65
2023/04/13 06:13:33;;;;;;;;;;;;;;;9.00;100.00;96927.34;5119443;28;19928;-66
2023/04/13 06:15:59;;;;;;;;;;;;;;;8.99;100.00;96937.19;5119678;28;19967;-66
2023/04/13 06:18:26;;;;;;;;;;;;;;;9.10;100.00;96945.88;5122973;28;19920;-65
2023/04/13 06:20:54;;;;;;;;;;;;;;;9.13;100.00;96948.00;5122732;28;20446;-66
2023/04/13 06:23:20;;;;;;;;;;;;;;;9.08;100.00;96948.03;5119508;28;19924;-66
2023/04/13 06:25:48;;;;;;;;;;;;;;;9.07;100.00;96943.78;5119316;28;19963;-66
2023/04/13 06:28:14;;;;;;;;;;;;;;;8.97;100.00;96951.84;5123198;28;19963;-66
2023/04/13 06:30:41;;;;;;;;;;;;;;;9.00;100.00;96943.31;5129399;28;19927;-65
2023/04/13 06:33:07;;;;;;;;;;;;;;;9.02;100.00;96952.59;5125265;28;19924;-65
2023/04/13 06:35:35;;;;;;;;;;;;;;;9.05;100.00;96948.59;5123169;28;19963;-65
2023/04/13 06:38:02;;;;;;;;;;;;;;;9.07;100.00;96965.06;5105510;28;19959;-65
2023/04/13 06:40:32;;;;;;;;;;;;;;;9.05;100.00;96959.25;5126482;28;19941;-66
2023/04/13 06:42:58;;;;;;;;;;;;;;;8.97;100.00;96957.19;5126449;28;19926;-65
2023/04/13 06:45:25;;;;;;;;;;;;;;;8.89;100.00;96960.41;5104700;28;19980;-65
2023/04/13 06:47:52;;;;;;;;;;;;;;;8.87;100.00;96968.69;5123115;28;19924;-65
2023/04/13 06:50:18;;;;;;;;;;;;;;;8.92;100.00;96970.50;5125698;28;19928;-65
2023/04/13 06:52:45;;;;;;;;;;;;;;;9.02;100.00;96968.59;5126150;28;19930;-65
2023/04/13 06:55:14;;;;;;;;;;;;;;;8.95;100.00;96970.75;5124022;28;19942;-65
2023/04/13 06:57:40;;;;;;;;;;;;;;;8.96;100.00;96979.53;5122292;28;19932;-65
2023/04/13 07:00:07;;;;;;;;;;;;;;;8.99;100.00;96971.00;5125798;28;19951;-66
2023/04/13 07:02:34;;;;;;;;;;;;;;;9.10;100.00;96973.31;5125670;28;19923;-66
2023/04/13 07:05:00;;;;;;;;;;;;;;;9.11;100.00;96964.25;5125277;28;19934;-66
2023/04/13 07:07:27;;;;;;;;;;;;;;;9.18;100.00;96963.97;5122011;28;19924;-65
2023/04/13 07:09:53;;;;;;;;;;;;;;;9.28;100.00;96966.56;5121939;28;19927;-66
2023/04/13 07:12:21;;;;;;;;;;;;;;;9.25;100.00;96980.44;5124940;28;19984;-65
2023/04/13 07:14:48;;;;;;;;;;;;;;;9.15;100.00;96977.84;5125390;28;20336;-65
2023/04/13 07:17:15;;;;;;;;;;;;;;;8.98;100.00;96988.84;5123066;28;19920;-66
2023/04/13 07:19:44;;;;;;;;;;;;;;;9.11;100.00;96990.91;5121890;28;19924;-66
2023/04/13 07:22:11;;;;;;;;;;;;;;;9.07;100.00;96983.72;5123612;28;19927;-65
2023/04/13 07:24:37;;;;;;;;;;;;;;;9.04;100.00;96990.41;5125169;28;19930;-65
2023/04/13 07:27:03;;;;;;;;;;;;;;;9.20;100.00;96977.78;5124229;28;19935;-65
2023/04/13 07:29:31;;;;;;;;;;;;;;;9.15;100.00;96985.81;5121516;28;19924;-65
2023/04/13 07:32:01;;;;;;;;;;;;;;;9.10;100.00;96977.84;5124013;28;19979;-65
2023/04/13 07:34:27;;;;;;;;;;;;;;;8.97;100.00;96995.25;5121240;28;19974;-64
2023/04/13 07:36:54;;;;;;;;;;;;;;;9.17;100.00;96983.66;5121291;28;19925;-66
2023/04/13 07:39:21;;;;;;;;;;;;;;;9.24;100.00;96978.84;5123976;28;19920;-66
2023/04/13 07:41:47;;;;;;;;;;;;;;;9.20;100.00;96978.59;5124863;28;19923;-66
2023/04/13 07:44:14;;;;;;;;;;;;;;;9.17;100.00;96984.47;5122337;28;20005;-65
2023/04/13 07:46:42;;;;;;;;;;;;;;;9.31;100.00;96983.84;5120927;28;19955;-65
2023/04/13 07:49:09;;;;;;;;;;;;;;;9.36;100.00;96976.63;5104377;28;19946;-66
2023/04/13 07:51:35;;;;;;;;;;;;;;;9.42;100.00;96978.16;5124490;28;19957;-66
2023/04/13 07:54:02;;;;;;;;;;;;;;;9.41;100.00;96986.47;5124059;28;20110;-66
2023/04/13 07:56:29;;;;;;;;;;;;;;;9.48;100.00;96982.38;5121145;28;20435;-66
2023/04/13 07:58:56;;;;;;;;;;;;;;;9.35;100.00;96980.34;5121129;28;19931;-65
2023/04/13 08:01:22;;;;;;;;;;;;;;;9.22;100.00;96975.66;5129276;28;19923;-65
2023/04/13 08:03:50;;;;;;;;;;;;;;;9.51;100.00;96986.38;5120777;28;19966;-65
2023/04/13 08:06:19;;;;;;;;;;;;;;;9.62;100.00;96987.88;5123353;28;19942;-65
2023/04/13 08:08:46;;;;;;;;;;;;;;;9.83;100.00;96985.84;5124238;28;19937;-66
2023/04/13 08:11:12;;;;;;;;;;;;;;;9.45;100.00;96980.28;5121991;28;19995;-64
2023/04/13 08:13:38;;;;;;;;;;;;;;;9.68;100.00;96994.78;5120386;28;19959;-65
2023/04/13 08:16:05;;;;;;;;;;;;;;;9.45;100.00;96990.94;5103315;28;19963;-65
2023/04/13 08:18:31;;;;;;;;;;;;;;;9.50;100.00;96985.56;5124211;28;19991;-65
2023/04/13 08:20:59;;;;;;;;;;;;;;;9.54;100.00;96983.94;5124193;28;20039;-65
2023/04/13 08:23:26;;;;;;;;;;;;;;;9.58;100.00;96989.50;5111943;28;19920;-65
2023/04/13 08:25:53;;;;;;;;;;;;;;;9.47;100.00;96980.78;5111932;28;19924;-65
2023/04/13 08:28:19;;;;;;;;;;;;;;;9.78;100.00;96984.81;5111945;28;19919;-66
2023/04/13 08:30:46;;;;;;;;;;;;;;;9.65;100.00;96984.66;5121196;28;20167;-66
2023/04/13 08:33:12;;;;;;;;;;;;;;;9.66;100.00;96980.91;5121698;28;19991;-66
2023/04/13 08:35:38;;;;;;;;;;;;;;;9.87;100.00;96970.88;5120226;28;19963;-66
2023/04/13 08:38:07;;;;;;;;;;;;;;;9.70;100.00;96976.63;5121094;28;19924;-65
2023/04/13 08:40:36;;;;;;;;;;;;;;;9.78;100.00;96974.13;5123527;28;19930;-65
2023/04/13 08:43:02;;;;;;;;;;;;;;;9.66;100.00;96968.38;5123094;28;19959;-66
2023/04/13 08:45:29;;;;;;;;;;;;;;;9.67;100.00;96963.84;5120083;28;19970;-66
2023/04/13 08:47:57;;;;;;;;;;;;;;;9.86;100.00;96963.94;5119934;28;19991;-66
2023/04/13 08:50:25;;;;;;;;;;;;;;;9.72;100.00;96975.25;5101382;28;19946;-65
2023/04/13 08:52:53;;;;;;;;;;;;;;;9.98;100.00;96957.16;5119901;28;19923;-65
2023/04/13 08:55:20;;;;;;;;;;;;;;;10.05;100.00;96962.16;5122810;28;19986;-67
2023/04/13 08:57:48;;;;;;;;;;;;;;;9.99;100.00;96957.97;5123468;28;19920;-66
2023/04/13 09:00:16;;;;;;;;;;;;;;;9.94;100.00;96960.66;5123221;28;20030;-65
2023/04/13 09:02:46;;;;;;;;;;;;;;;9.84;100.00;96960.78;5123554;28;19938;-65
2023/04/13 09:05:14;;;;;;;;;;;;;;;9.94;100.00;96960.66;5121161;28;19987;-65
2023/04/13 09:07:42;;;;;;;;;;;;;;;10.08;100.00;96961.59;5120075;28;19974;-66
2023/04/13 09:10:09;;;;;;;;;;;;;;;10.28;100.00;96956.88;5121200;28;19931;-66
2023/04/13 09:12:37;;;;;;;;;;;;;;;10.34;100.00;96952.25;5123190;28;19924;-69
2023/04/13 09:15:05;;;;;;;;;;;;;;;10.40;100.00;96947.69;5122388;28;19987;-67
2023/04/13 09:17:32;;;;;;;;;;;;;;;10.45;100.00;96951.09;5119831;28;19928;-66
2023/04/13 09:20:11;;;;;;;;;;;;;;;10.56;100.00;96952.53;5119743;28;19943;-66
2023/04/13 09:22:37;;;;;;;;;;;;;;;10.77;100.00;96947.72;5123099;28;19935;-66
2023/04/13 09:25:04;;;;;;;;;;;;;;;10.76;100.00;96962.97;5122129;28;19934;-65
2023/04/13 09:27:31;;;;;;;;;;;;;;;10.89;100.00;96955.34;5119354;28;19920;-65
2023/04/13 09:30:00;;;;;;;;;;;;;;;10.96;100.00;96942.41;5122026;28;19924;-65
2023/04/13 09:32:27;;;;;;;;;;;;;;;10.95;100.00;96943.50;5111247;28;19983;-66
2023/04/13 09:34:57;;;;;;;;;;;;;;;10.94;100.00;96929.34;5110933;28;19931;-66
2023/04/13 09:37:23;;;;;;;;;;;;;;;10.87;100.00;96928.09;5119490;28;19984;-66
2023/04/13 09:39:50;;;;;;;;;;;;;;;10.86;100.00;96935.34;5119298;28;19988;-66
2023/04/13 09:42:18;;;;;;;;;;;;;;;10.91;100.00;96945.16;5121738;28;20007;-66
2023/04/13 09:44:55;;;;;;;;;;;;;;;10.99;100.00;96929.28;5122752;28;19934;-65
2023/04/13 09:47:23;;;;;;;;;;;;;;;11.02;100.00;96928.69;5119839;28;19927;-66
2023/04/13 09:49:49;;;;;;;;;;;;;;;11.05;100.00;96938.03;5119471;28;19927;-65
2023/04/13 09:52:19;;;;;;;;;;;;;;;11.08;100.00;96932.09;5122152;28;20650;-66
2023/04/13 09:54:48;;;;;;;;;;;;;;;11.12;100.00;96935.78;5122937;28;19930;-66
2023/04/13 09:57:23;;;;;;;;;;;;;;;11.29;100.00;96934.19;5120459;28;19952;-66
2023/04/13 09:59:50;;;;;;;;;;;;;;;11.50;100.00;96921.28;5120658;28;19924;-65
2023/04/13 10:02:18;;;;;;;;;;;;;;;11.47;100.00;96924.53;5124505;28;19924;-66
2023/04/13 10:04:46;;;;;;;;;;;;;;;11.85;100.00;96922.59;5126777;28;19923;-66
2023/04/13 10:07:12;;;;;;;;;;;;;;;12.01;100.00;96923.13;5124965;28;19994;-65
2023/04/13 10:09:40;;;;;;;;;;;;;;;12.35;100.00;96926.19;5123093;28;19924;-67
2023/04/13 10:12:09;;;;;;;;;;;;;;;12.41;100.00;96919.63;5124252;28;19924;-67
2023/04/13 10:14:38;;;;;;;;;;;;;;;12.26;100.00;96917.25;5126699;28;19920;-66
2023/04/13 10:17:15;;;;;;;;;;;;;;;12.30;98.13;96920.94;5125876;28;19949;-66
2023/04/13 10:19:43;;;;;;;;;;;;;;;12.22;100.00;96919.75;5123140;28;19931;-66
2023/04/13 10:22:11;;;;;;;;;;;;;;;12.18;95.17;96926.00;5124356;28;19931;-67
2023/04/13 10:24:39;;;;;;;;;;;;;;;12.39;90.13;96924.50;5126561;28;19923;-66
2023/04/13 10:27:11;;;;;;;;;;;;;;;12.42;89.91;96918.56;5125595;28;19963;-66
2023/04/13 10:29:37;;;;;;;;;;;;;;;12.26;86.57;96919.94;5123008;28;19963;-66
2023/04/13 10:32:04;;;;;;;;;;;;;;;12.05;90.94;96902.69;5123993;28;20519;-67
2023/04/13 10:34:33;;;;;;;;;;;;;;;12.05;100.00;96908.84;5126316;28;19920;-66
2023/04/13 10:37:02;;;;;;;;;;;;;;;12.11;100.00;96901.50;5126052;28;19924;-66
2023/04/13 10:39:32;;;;;;;;;;;;;;;12.19;98.32;96908.84;5122598;28;19931;-66
2023/04/13 10:41:59;;;;;;;;;;;;;;;12.02;100.00;96903.28;5122487;28;19924;-66
2023/04/13 10:44:25;;;;;;;;;;;;;;;11.84;100.00;96903.06;5113959;28;19920;-66
2023/04/13 10:46:51;;;;;;;;;;;;;;;12.04;98.58;96911.81;5113983;28;20526;-67
2023/04/13 10:49:18;;;;;;;;;;;;;;;12.05;96.21;96897.34;5113937;28;20018;-65
2023/04/13 10:51:45;;;;;;;;;;;;;;;12.14;95.72;96898.22;5114080;28;19928;-66
2023/04/13 10:54:12;;;;;;;;;;;;;;;12.22;96.55;96903.72;5113719;28;19924;-65
2023/04/13 10:56:40;;;;;;;;;;;;;;;12.21;94.21;96896.75;5113734;28;19963;-66
2023/04/13 10:59:06;;;;;;;;;;;;;;;12.24;89.13;96885.44;5113684;28;19940;-66
2023/04/13 11:01:34;;;;;;;;;;;;;;;12.29;90.56;96892.56;5124844;28;19931;-66
2023/04/13 11:04:02;;;;;;;;;;;;;;;12.26;85.34;96883.25;5104295;28;19943;-66
2023/04/13 11:06:28;;;;;;;;;;;;;;;12.24;91.89;96879.31;5125668;28;20001;-66
2023/04/13 11:08:59;;;;;;;;;;;;;;;12.40;90.68;96881.38;5125412;28;19927;-66
2023/04/13 11:11:25;;;;;;;;;;;;;;;12.37;88.33;96878.50;5113419;28;19924;-65
2023/04/13 11:13:53;;;;;;;;;;;;;;;12.23;93.96;96875.81;5112541;28;19924;-66
2023/04/13 11:16:20;;;;;;;;;;;;;;;12.35;92.58;96869.97;5113619;28;19926;-66
2023/04/13 11:18:46;;;;;;;;;;;;;;;12.34;95.12;96868.41;5113718;28;19924;-65
2023/04/13 11:21:16;;;;;;;;;;;;;;;12.38;91.84;96885.44;5113784;28;19924;-66
2023/04/13 11:23:42;;;;;;;;;;;;;;;12.41;96.60;96874.13;5113802;28;19930;-65
2023/04/13 11:26:09;;;;;;;;;;;;;;;12.51;93.52;96873.91;5113683;28;19924;-66
2023/04/13 11:28:37;;;;;;;;;;;;;;;12.64;89.57;96886.50;5113598;28;20326;-66
2023/04/13 11:31:06;;;;;;;;;;;;;;;12.72;91.28;96882.31;5124833;28;19924;-67
2023/04/13 11:33:33;;;;;;;;;;;;;;;12.46;94.00;96879.38;5121950;28;19924;-66
2023/04/13 11:36:00;;;;;;;;;;;;;;;12.80;91.90;96873.56;5121949;28;19920;-67
2023/04/13 11:38:27;;;;;;;;;;;;;;;12.61;93.23;96884.41;5125458;28;19946;-66
2023/04/13 11:41:00;;;;;;;;;;;;;;;12.67;89.98;96885.91;5125428;28;19962;-66
2023/04/13 11:43:26;;;;;;;;;;;;;;;12.78;85.24;96887.25;5121674;28;19924;-65
2023/04/13 11:45:53;;;;;;;;;;;;;;;12.76;85.38;96881.41;5121501;28;19987;-66
2023/04/13 11:48:21;;;;;;;;;;;;;;;12.79;87.15;96875.44;5124392;28;19931;-66
2023/04/13 11:50:48;;;;;;;;;;;;;;;12.58;90.29;96874.31;5125028;28;19924;-66
2023/04/13 11:53:15;;;;;;;;;;;;;;;12.70;89.68;96876.47;5122574;28;19942;-66
2023/04/13 11:55:42;;;;;;;;;;;;;;;12.79;85.57;96880.00;5121280;28;19935;-66
2023/04/13 11:58:09;;;;;;;;;;;;;;;12.68;91.14;96876.78;5122552;28;19930;-66
2023/04/13 12:00:38;;;;;;;;;;;;;;;12.51;91.77;96867.75;5127468;28;19924;-65
2023/04/13 12:03:05;;;;;;;;;;;;;;;12.44;92.17;96873.53;5123727;28;20399;-65
2023/04/13 12:05:33;;;;;;;;;;;;;;;12.72;89.30;96874.28;5120861;28;19924;-66
2023/04/13 12:07:59;;;;;;;;;;;;;;;12.85;83.34;96876.13;5121109;28;19924;-66
2023/04/13 12:10:26;;;;;;;;;;;;;;;12.95;84.00;96878.56;5124677;28;19957;-66
2023/04/13 12:12:57;;;;;;;;;;;;;;;12.80;85.42;96873.56;5124410;28;19924;-65
2023/04/13 12:15:25;;;;;;;;;;;;;;;12.60;90.16;96876.66;5102712;28;19938;-66
2023/04/13 12:17:53;;;;;;;;;;;;;;;12.76;89.75;96878.72;5120740;28;19935;-66
2023/04/13 12:20:19;;;;;;;;;;;;;;;12.93;83.97;96884.25;5123562;28;19928;-66
2023/04/13 12:22:47;;;;;;;;;;;;;;;12.88;88.26;96888.91;5124019;28;19924;-66
2023/04/13 12:25:14;;;;;;;;;;;;;;;12.91;89.78;96894.47;5121063;28;19920;-66
2023/04/13 12:27:41;;;;;;;;;;;;;;;12.81;91.43;96892.00;5120584;28;19967;-66
2023/04/13 12:30:10;;;;;;;;;;;;;;;12.95;83.40;96884.75;5124412;28;19923;-66
2023/04/13 12:32:39;;;;;;;;;;;;;;;12.95;83.28;96884.75;5123922;28;19924;-65
2023/04/13 12:35:06;;;;;;;;;;;;;;;12.97;75.16;96873.69;5123240;28;19927;-65
2023/04/13 12:37:33;;;;;;;;;;;;;;;12.85;80.36;96889.53;5102949;28;19924;-66
2023/04/13 12:40:00;;;;;;;;;;;;;;;12.82;86.84;96880.19;5120639;28;19928;-65
2023/04/13 12:42:27;;;;;;;;;;;;;;;12.88;87.21;96878.19;5106323;28;19931;-66
2023/04/13 12:44:55;;;;;;;;;;;;;;;12.61;90.71;96879.06;5123954;28;19945;-67